International TAF

Brunei, China, Hong Kong, Malaysia, Philippines, Taiwan

The availability of aerodrome forecasts from overseas locations is dependent on the regular international exchange of data. Some locations may at times be absent. If this problem persists, please advise webav@bom.gov.au

 back to top

ZSPD 15/08/2018 UTC

TAF ZSPD 151522Z 1518/1618 03009G15MPS 6000 BKN011 TX31/1606Z
TN26/1520Z TEMPO 1612/1618 SHRA BKN010 FEW030CB OVC033

WIDD 15/08/2018 UTC

TAF WIDD 151100Z 1512/1612 14005KT 9999 FEW014

WAMM 15/08/2018 UTC

TAF WAMM 151700Z 1518/1624 10003KT 9999 FEW022
BECMG 1523/1601 18008KT

WBSB 15/08/2018 UTC

TAF WBSB 151700Z 1518/1700 20002KT 8000 FEW015
BECMG 1604/1606 30008KT FEW017

WBKK 15/08/2018 UTC

TAF WBKK 151700Z 1518/1618 11005KT 9999 FEW014

WBGG 15/08/2018 UTC

TAF WBGG 151700Z 1518/1618 VRB03KT 8000 SCT020
BECMG 1600/1602 16010KT TEMPO 1608/1612 5000 HZ

VHHH 15/08/2018 UTC

TAF VHHH 151700Z 1518/1624 12010KT 9999 FEW015 SCT030 TX31/1606Z
TN27/1522Z TN27/1622Z TEMPO 1518/1523 VRB05KT 4000 SHRA FEW012CB
SCT020 TEMPO 1523/1606 3000 -TSRA SHRA FEW010CB SCT020 TEMPO
1615/1621 VRB05KT 4000 SHRA FEW012CB SCT020 TEMPO 1621/1624 3000
-TSRA SHRA FEW010CB SCT020

VMMC 15/08/2018 UTC

TAF VMMC 151700Z 1518/1624 12012KT 9999 FEW012 SCT025
TEMPO 1518/1603 3500 SHRA FEW010CB SCT020
TEMPO 1603/1608 2500 TSRA FEW008 SCT015CB
TEMPO 1612/1624 3500 SHRA FEW010CB SCT020

ZGSZ 15/08/2018 UTC

TAF ZGSZ 151508Z 1518/1618 12004MPS 6000 SCT030 TX30/1606Z
TN26/1522Z
TEMPO 1518/1524 SHRA SCT015 FEW020CB BKN030

RCTP 15/08/2018 UTC

TAF RCTP 151700Z 1518/1624 25010KT 9999 FEW015 BKN032
TEMPO 1520/1524 5000 SHRA FEW010 BKN018 BKN035
BECMG 1600/1602 26015KT
BECMG 1610/1612 24010KT

RCKH 15/08/2018 UTC

TAF RCKH 151700Z 1518/1624 09005KT 7000 FEW012 BKN032
TEMPO 1520/1602 15005KT 3200 SHRA SCT008 BKN012 FEW015CB BKN030
BECMG 1602/1604 20005KT
TEMPO 1612/1618 08005KT 3200 SHRA FEW010 FEW015CB BKN016 BKN030
TEMPO 1620/1624 4000 SHRA FEW010 FEW015CB BKN018 BKN035

ZGGG 15/08/2018 UTC

TAF ZGGG 151508Z 1518/1618 10004MPS 8000 BKN040 TX33/1607Z
TN26/1522Z
TEMPO 1604/1610 2500 TSRA SCT011 SCT030CB BKN033

ZBAA 15/08/2018 UTC

TAF ZBAA 151520Z 1518/1618 14004MPS 6000 NSC TX31/1607Z TN21/1521Z

ZSSS 15/08/2018 UTC

TAF ZSSS 151512Z 1518/1618 05007MPS 6000 BKN020 TX31/1606Z
TN26/1521Z
TEMPO 1606/1612 SHRA BKN020 SCT030CB

ZBTJ 15/08/2018 UTC

TAF ZBTJ 151500Z 1518/1618 04006G13MPS 5000 HZ NSC TX32/1607Z
TN24/1521Z

ZBYN 15/08/2018 UTC

TAF ZBYN 151515Z 1518/1618 09003MPS 6000 NSC TX30/1607Z TN20/1521Z

ZSHC 15/08/2018 UTC

TAF ZSHC 151505Z 1518/1618 35006G12MPS 6000 BKN023 TX30/1605Z
TN26/1521Z TEMPO 1606/1612 SHRA BKN023 FEW030CB BECMG 1613/1614 SHRA
BKN023 FEW030CB

ZSOF 15/08/2018 UTC

TAF ZSOF 151502Z 151818 01004MPS 4000 BR NSC TX33/07Z TN26/21Z
TEMPO
0612 TSRA FEW030CB

ZWWW 15/08/2018 UTC

TAF ZWWW 151506Z 1518/1618 18004MPS CAVOK TX33/1609Z TN21/1523Z
BECMG 1602/1603 36004MPS BECMG 1613/1614 18004MPS

ZYTL 15/08/2018 UTC

TAF ZYTL 151503Z 1518/1618 05004MPS 8000 FEW030 TX30/1606Z
TN23/1520Z

RPLL 15/08/2018 UTC

TAF RPLL 151700Z 1518/1624 24011KT 9999 FEW023 BKN100
TX31/1606Z TN26/1522Z
TEMPO 1518/1524 23006KT 9000 -SHRA SCT023 BKN090
TEMPO 1603/1609 25016KT 9000 -SHRA FEW020CB FEW023 BKN100

RPVM 15/08/2018 UTC

TAF RPVM 151700Z 1518/1624 22008KT 9999 FEW020 BKN300
TEMPO 1518/1524 25008KT FEW020 BKN100
TEMPO 1600/1606 26012KT FEW018CB FEW020 BKN250

RPMZ 15/08/2018 UTC

TAF RPMZ 151700Z 1518/1618 22006KT 9999 FEW017 SCT300
TEMPO 1518/1524 00000KT FEW017

Australian International

The availability of aerodrome forecasts from overseas locations is dependent on the regular international exchange of data. Some locations may at times be absent. If this problem persists, please advise webav@bom.gov.au

 back to top

YMML 15/08/2018 UTC

TAF YMML 151713Z 1518/1624
29010KT 9999 FEW045
FM160000 25014KT 9999 SCT045
FM161000 35009KT CAVOK
FM162300 33015G25KT CAVOK
RMK
T 06 07 11 13 Q 1010 1012 1014 1013

YSSY 15/08/2018 UTC

TAF YSSY 151707Z 1518/1624
24010KT CAVOK
FM160000 24015G25KT CAVOK
FM160300 22015KT CAVOK
FM161000 29008KT CAVOK
RMK FM151800 MOD TURB BLW 5000FT TILL160300
T 15 15 18 20 Q 1008 1011 1012 1010

YBBN 15/08/2018 UTC

TAF YBBN 151701Z 1518/1624
VRB03KT 9999 MIFG HZ NSC
FM152100 32006KT CAVOK
FM160200 02012KT CAVOK
FM161000 32005KT CAVOK
FM161200 26006KT CAVOK
RMK
T 11 10 20 25 Q 1014 1016 1016 1012

YSCB 15/08/2018 UTC

TAF AMD YSCB 151741Z 1518/1618
29012KT 9999 FEW020
FM160100 28014KT 9999 FEW050
FM161000 30006KT CAVOK
RMK FM151800 MOD/SEV TURB BLW 5000FT TILL152000
FM152000 MOD TURB BLW 5000FT TILL152200
T 08 05 10 13 Q 1009 1011 1013 1012

YBCS 15/08/2018 UTC

TAF AMD YBCS 151734Z 1518/1618
15008KT 9999 -SHRA FEW025 BKN040
FM160100 11014KT 9999 FEW030
FM160800 15008KT 9999 -SHRA SCT025 SCT040
RMK
T 19 17 25 27 Q 1015 1016 1017 1015

YBAS 15/08/2018 UTC

TAF YBAS 151703Z 1518/1618
30005KT CAVOK
FM160100 12006KT CAVOK
FM161500 30005KT CAVOK
RMK
T 07 06 19 24 Q 1017 1018 1020 1018

YBMA 15/08/2018 UTC

TAF YBMA 151605Z 1518/1606
VRB05KT CAVOK
RMK
T 06 05 23 27 Q 1016 1017 1018 1016

YPAD 15/08/2018 UTC

TAF YPAD 151738Z 1518/1624
25012KT 9999 -SHRA SCT030 SCT040
FM160100 28010KT 9999 -SHRA SCT030
FM161100 33007KT 9999 -SHRA SCT030
FM161600 02008KT 9999 NSW FEW010 SCT030
RMK
T 11 10 13 14 Q 1015 1016 1018 1017

YPDN 15/08/2018 UTC

TAF YPDN 151703Z 1518/1624
07005KT CAVOK
FM160000 08013KT CAVOK
FM160500 35008KT CAVOK
FM161300 14004KT 9999 FEW020
RMK
T 21 20 26 30 Q 1012 1012 1013 1012

YPTN 15/08/2018 UTC

TAF YPTN 151703Z 1518/1618
13004KT CAVOK
FM160000 12010KT CAVOK
FM160800 15005KT CAVOK
RMK
T 14 13 23 30 Q 1013 1014 1015 1013

YPPH 15/08/2018 UTC

TAF AMD YPPH 151712Z 1518/1624
03006KT 9999 -SHRA SCT030 BKN040
FM160400 26010KT 9999 -SHRA FEW025 BKN045
FM161400 18005KT 9999 -SHRA SCT025 BKN035
INTER 1519/1603 4000 SHRA BKN015
INTER 1614/1621 3000 SHRA BKN010
RMK
T 09 10 11 17 Q 1022 1021 1022 1022

YPLM 15/08/2018 UTC

TAF YPLM 151711Z 1518/1618
21012KT CAVOK
FM160000 15010KT CAVOK
FM160400 06010KT CAVOK
FM161000 22012KT CAVOK
RMK
T 15 13 16 24 Q 1017 1016 1017 1017

YCAR

TAF not available.

YPCC 15/08/2018 UTC

TAF AMD YPCC 151712Z 1518/1618
11014KT 9999 -SHRA SCT020
INTER 1609/1618 3000 SHRA BKN010
RMK
T 25 25 25 27 Q 1013 1012 1013 1014

YPPD 15/08/2018 UTC

TAF YPPD 151711Z 1518/1618
17008KT CAVOK
FM160000 12005KT CAVOK
FM160300 03010KT CAVOK
FM160600 33014KT CAVOK
FM161200 20008KT CAVOK
RMK
T 11 10 17 28 Q 1015 1014 1015 1015

YBTL 15/08/2018 UTC

TAF YBTL 151734Z 1518/1618
14008KT 9999 SCT025
FM160100 06014KT 9999 FEW040
FM160800 14008KT 9999 SCT025
RMK
T 15 16 24 26 Q 1016 1017 1018 1015

YMHB 15/08/2018 UTC

TAF YMHB 151707Z 1518/1618
29015KT 9999 -SHRA SCT035
FM160000 27018G28KT 9999 SCT035
FM160700 26013KT 9999 SCT035 BKN045
FM161000 31008KT 9999 SCT030 BKN040
FM161300 33008KT 9999 FEW025 SCT035
RMK FM151800 MOD/SEV TURB BLW 5000FT TILL160400
FM160400 MOD TURB BLW 5000FT
T 08 07 09 10 Q 996 999 1001 1002

YPXM 15/08/2018 UTC

TAF YPXM 151712Z 1518/1618
12014KT 9999 BKN016
RMK
T 22 21 22 23 Q 1014 1013 1014 1016

New Zealand

The availability of aerodrome forecasts from overseas locations is dependent on the regular international exchange of data. Some locations may at times be absent. If this problem persists, please advise webav@bom.gov.au

 back to top

NZAA 15/08/2018 UTC

TAF NZAA 151706Z 1518/1618 24012KT 9999 -SHRA FEW025 SCT040
FM160000 32008KT 9999 -SHRA SCT018 BKN030
TEMPO 1610/1614 BKN014
TEMPO 1614/1618 6000 SHRA BKN012 FEW020TCU

NZWN 15/08/2018 UTC

TAF NZWN 151706Z 1518/1618 34010KT 9999 FEW040
BECMG 1518/1520 34015G25KT
FM160000 34020G30KT 9999 -SHRA SCT014 BKN020
TEMPO 1606/1616 5000 SHRA BKN012 FEW020TCU
PROB30 TEMPO 1609/1616 3000 +SHRA BKN012 FEW020CB
BECMG 1616/1618 34015KT

NZCH 15/08/2018 UTC

TAF NZCH 151706Z 1518/1618 02005KT 9999 BKN070
PROB30 1518/1519 2000 BR

YLHI 15/08/2018 UTC

TAF YLHI 151732Z 1518/1618
30017G25KT 9999 SCT025
FM160200 28015KT 9999 FEW030
FM160700 25008KT 9999 FEW030
RMK FM151800 MOD TURB BLW 5000FT TILL160100
T 18 18 20 21 Q 1012 1012 1012 1010

YSNF 15/08/2018 UTC

TAF YSNF 151735Z 1518/1618
27008KT 9999 SCT030
FM160000 29014KT 9999 SCT035
FM160900 29014KT 9999 -SHRA SCT030
RMK
T 14 17 19 19 Q 1017 1018 1018 1015

Indonesia, Malaysia, Myanmar, Singapore, Thailand, Vietnam

The availability of aerodrome forecasts from overseas locations is dependent on the regular international exchange of data. Some locations may at times be absent. If this problem persists, please advise webav@bom.gov.au

 back to top

WADA

TAF not available.

WAAA 15/08/2018 UTC

TAF COR WAAA 151700Z 1518/1624 17005KT 8000 FEW019
BECMG 1522/1524 9999
BECMG 1604/1606 29010KT
BECMG 1611/1613 09005KT 8000
BECMG 1617/1619 18005KT

WIII 15/08/2018 UTC

TAF WIII 151700Z 1518/1700 VRB03KT 4500 HZ SCT020
BECMG 1603/1605 06008KT 7000 NSW

WIHH 15/08/2018 UTC

TAF WIHH 151700Z 1518/1618 12003KT 5000 HZ FEW024 BECMG 1603/1605 05009KT 7000

WIMM 15/08/2018 UTC

TAF WIMM 151700Z 1518/1618 VRB04KT 4000 HZ SCT018
BECMG 1602/1604 05010KT 9999
BECMG 1610/1612 VRB05KT 5000 HZ FEW016CB SCT017

WIPP 15/08/2018 UTC

TAF WIPP 151700Z 1518/1618 13008KT 9999 SCT012

WIKD

TAF not available.

WARR 15/08/2018 UTC

TAF WARR 151700Z 1518/1618 26005KT 7000 FEW020
TEMPO 1520/1600 4000 HZ BECMG 1601/1603 10010KT 9999

WADD 15/08/2018 UTC

TAF WADD 151700Z 1518/1618 10012KT 9999 SCT017

WRRA

TAF not available.

WALL 15/08/2018 UTC

TAF WALL 151700Z 1518/1624 22005KT 9000 SCT018 BECMG 1523/1524 9999 BKN018 BECMG 1603/1604
FEW018

WSSS 15/08/2018 UTC

TAF WSSS 151700Z 1518/1700 16010KT 9999 FEW015 SCT020
TEMPO 1602/1606 3000 TSRA FEW012CB BKN015

WSAP 15/08/2018 UTC

TAF WSAP 151700Z 1518/1700 16010KT 9999 FEW015 SCT020
TEMPO 1602/1606 3000 TSRA FEW012CB BKN015

WMKK 15/08/2018 UTC

TAF WMKK 151700Z 1518/1700 VRB03KT 5000 HZ FEW020
BECMG 1600/1602 16008KT 9999 NSW
BECMG 1605/1607 FEW017CB BECMG 1614/1615 VRB03KT FEW030

WMSA 15/08/2018 UTC

TAF WMSA 151700Z 1518/1618 VRB03KT 9999 FEW017CB
BECMG 1518/1520 4000 HZ FEW010
BECMG 1602/1604 18010KT 9999 NSW FEW020
PROB30 TEMPO 1606/1610 5000 TSRA FEW017CB
BECMG 1613/1614 VRB03KT FEW025

WMKP 15/08/2018 UTC

TAF WMKP 151700Z 1518/1618 VRB02KT 8000 FEW025 SCT140 BKN270
BECMG 1603/1605 22010KT 5000 HZ FEW020
BECMG 1615/1617 VRB02KT 7000 FEW025

WMKJ 15/08/2018 UTC

TAF WMKJ 151700Z 1518/1618 VRB02KT 9999 FEW025
TEMPO 1604/1608 15008KT 4000 TSRA FEW017CB

WMKD 15/08/2018 UTC

TAF WMKD 151700Z 1518/1618 18005KT 7000 FEW025
BECMG 1603/1605 9999 SCT019
PROB30 TEMPO 1613/1618 7000 -TSRA FEW010 FEW017CB

WMKB 15/08/2018 UTC

TAF WMKB 151700Z 1518/1618 VRB03KT 5000 HZ FEW025
BECMG 1605/1607 22010KT

VTBD 15/08/2018 UTC

TAF VTBD 151700Z 1518/1624 23008KT 9999 FEW020 SCT100
TEMPO 1608/1612 23015KT 5000 TSRA FEW018CB SCT030 BKN100

VTBS 15/08/2018 UTC

TAF VTBS 151700Z 1518/1624 23008KT 9999 FEW020 SCT100
TEMPO 1608/1612 23015KT 5000 TSRA FEW018CB SCT030 BKN100

VTBU 15/08/2018 UTC

TAF VTBU 151700Z 1518/1618 26004KT 6000 FEW020 SCT100
BECMG 1600/1602 23010KT 9999

VTCC 15/08/2018 UTC

TAF VTCC 151700Z 1518/1624 20005KT 9999 BKN030
TEMPO 1608/1615 VRB15G25KT 5000 TSRA FEW025CB BKN030

VTSP 15/08/2018 UTC

TAF VTSP 151700Z 1518/1624 28006KT 8000 FEW020
BECMG 1602/1604 28010KT 9999 FEW020 SCT100
BECMG 1612/1614 28006KT 8000 FEW020

VTSS 15/08/2018 UTC

TAF VTSS 151700Z 1518/1618 24003KT 8000 FEW020

VVTS 15/08/2018 UTC

TAF VVTS 151700Z 1518/1624 24008KT 9999 SCT015 SCT040
TEMPO 1605/1611 27016G30KT 3000 TSRA BKN013 SCT015CB

VDPP 15/08/2018 UTC

TAF VDPP 151700Z 1518/1612 23008KT 9999 SCT017 SCT040
TEMPO 1519/1523 SCT015 FEW017CB

VVNB 15/08/2018 UTC

TAF VVNB 151700Z 1518/1618 05007KT 7000 -RA SCT015 BKN060
TEMPO 1518/1524 3000 +TSRA BKN015 FEW027CB BKN060
TEMPO 1601/1605 4000 RA BKN010 FEW020TCU
TEMPO 1610/1616 2500 +TSRA BKN010 SCT023CB BKN060

VYYY 15/08/2018 UTC

TAF VYYY 151700Z 1518/1618 20008KT 7000 BKN012 FEW018CB OVC090
TEMPO 1518/1524 19008G18KT 4000 RA BKN010 FEW016CB OVC080

South America

The availability of aerodrome forecasts from overseas locations is dependent on the regular international exchange of data. Some locations may at times be absent. If this problem persists, please advise webav@bom.gov.au

 back to top

SAEZ 15/08/2018 UTC

TAF SAEZ 151700Z 1518/1618 03005KT CAVOK
TX16/1617Z TN06/1611Z
PROB30 1607/1611 4000 BR
BECMG 1613/1615 CAVOK

SAVC 15/08/2018 UTC

TAF SAVC 151700Z 1518/1618 29020G30KT 9999 FEW030 SCT080 TX19/1520Z
TN10/1610Z PROB30 TEMPO 1518/1522 32028G40KT BECMG 1521/1523 28020KT
SCT030 BKN080 TEMPO 1602/1606 29025G35KT

SCIE 15/08/2018 UTC

TAF SCIE 151608Z 1518/1618 22010KT CAVOK TX15/1518Z TN06/1611Z
BECMG 1602/1604 20004KT
TEMPO 16/1605 12004KT OVC008
BECMG 1611/1613 32004KT BKN013
BECMG 1616/1618 27008KT SCT017

SACO 15/08/2018 UTC

TAF SACO 151700Z 1518/1618 05015KT CAVOK TX20/1518Z TN03/1610Z
BECMG 1600/1603 36010KT
BECMG 1612/1614 02015KT

SCIP 15/08/2018 UTC

TAF SCIP 151636Z 1518/1618 11015KT 9999 SCT020 BKN050 TX20/1520Z
TN17/1606Z
TEMPO 1519/1523 09020KT 7000 -SHRA SCT010 BKN030
BECMG 1602/1604 09010KT SCT025 BKN080
TEMPO 1608/1612 07015KT 8000 -SHRA SCT015 BKN040
BECMG 1616/1618 07020KT 6000 -RA SCT010 BKN020 OVC030

SAZM 15/08/2018 UTC

TAF SAZM 151700Z 1518/1618 02010KT CAVOK TX16/1618Z TN02/1610Z
BECMG 1610/1613 34015G25KT

SAME 15/08/2018 UTC

TAF SAME 151700Z 1518/1618 05005KT CAVOK TX20/1520Z TN02/1610Z

SUMU 15/08/2018 UTC

TAF SUMU 151745Z 1518/1618 14005KT 9999 SCT025 TX17/1618Z TN06/1610Z
BECMG 1605/1607 02010KT PROB40 TEMPO 1603/1612 3000 BR BKN004

SAZN 15/08/2018 UTC

TAF SAZN 151700Z 1518/1618 VRB03KT CAVOK
TX17/1618Z TNM01/1611Z
BECMG 1613/1615 25010KT

SCTE 15/08/2018 UTC

TAF SCTE 151647Z 1518/1618 01009KT CAVOK TX13/1518Z TN04/1612Z
BECMG 1602/1604 36015KT SCT025
BECMG 1608/1610 36015G25KT 8000 -RA BKN020 OVC040
TEMPO 1611/1616 6000 RA OVC020

SCCI 15/08/2018 UTC

TAF SCCI 151630Z 1518/1618 33010KT 9999 FEW037 TN04/1512Z
TX11/1521Z
TEMPO 1600/1606 35004KT 9000 -RA DZ FEW010 SCT020
BECMG 1607/1609 27012KT
BECMG 1610/1612 24012KT
BECMG 1615/1617 29010KT

SAWG 15/08/2018 UTC

TAF SAWG 151700Z 1518/1618 VRB03KT 9999 FEW030 BKN040 TX14/1520Z
TN05/1610Z
BECMG 1522/1524 29018KT FEW030 BKN070

SAAR 15/08/2018 UTC

TAF SAAR 151700Z 1518/1618 36010KT CAVOK
TX19/1618Z TN02/1610Z

SAZS 15/08/2018 UTC

TAF SAZS 151700Z 1518/1618 VRB03KT CAVOK
TX11/1520Z TNM03/1610Z
BECMG 1520/1523 29010KT
BECMG 1615/1617 BKN020 OVC035

SCEL 15/08/2018 UTC

TAF SCEL 151608Z 1518/1618 21008KT CAVOK TX23/1519Z TN05/1611Z
BECMG 1602/1604 15004KT 8000 NSC
TEMPO 1609/1613 VRB02KT 4000 BR
BECMG 1616/1618 18004KT CAVOK

SAWH 15/08/2018 UTC

TAF SAWH 151700Z 1518/1618 05008KT 9999 -SHRA SCT030 BKN070
TX07/1519Z TN02/1610Z
TEMPO 34015KT BKN020 SCT070
BECMG 1608/1610 23015G25KT BKN030

Guam, Japan, Korea

The availability of aerodrome forecasts from overseas locations is dependent on the regular international exchange of data. Some locations may at times be absent. If this problem persists, please advise webav@bom.gov.au

 back to top

PGUA 15/08/2018 UTC

TAF AMD PGUA 152010Z 1520/1624 18035G40KT 4800 -SHRA SCT010 BKN015
QNH2957INS
TEMPO 1520/1524 18035G55KT 3000 -TSRA BKN010CB
TEMPO 1603/1608 18035G55KT
BECMG 1607/1608 18030G35KT 4800 -SHRA BKN015 QNH2959INS
BECMG 1620/1621 18020G30KT 6000 -SHRA BKN010 QNH2969INS
TX31/1602Z TN24/1618Z

PGUM 15/08/2018 UTC

TAF PGUM 151738Z 1518/1624 18015G25KT 4SM RA VCSH SCT015 BKN025 OVC080
TEMPO 1518/1522 19020G33KT 1SM +SHRA BKN013 OVC025
FM152200 19015G28KT 6SM -RA VCSH SCT017 BKN030 OVC110
FM160100 21018G28KT P6SM VCSH SCT017 BKN040 OVC110

PGSN 15/08/2018 UTC

TAF PGSN 151738Z 1518/1618 12016G25KT 6SM -RA VCSH SCT017 BKN040 OVC100
TEMPO 1518/1522 14022G35KT 2SM +SHRA BKN014 OVC030
FM152200 15017G27KT P6SM VCSH SCT015 BKN030 OVC110
FM160600 18015G25KT P6SM VCSH SCT015 BKN040 OVC110

PTRO 15/08/2018 UTC

TAF PTRO 151738Z 1518/1618 30011G23KT P6SM VCSH SCT016 BKN040 OVC110

RJOO

15/08/2018 UTC

TAF RJOO 151708Z 1518/1700 22008KT 9999 -SHRA FEW015 BKN030 TEMPO
1606/1612 4000 TSRA BR FEW008 SCT015 FEW025CB BKN030 BECMG
1609/1612 36009KT

RJOB 15/08/2018 UTC

TAF AMD RJOB 152010Z 1520/1700 10004KT 7000 -SHRA FEW005 SCT008
BKN020 BECMG 1600/1602 24007KT TEMPO 1603/1609 3000 TSRA BR
BCFG FEW000 BKN008 BKN015 FEW020CB BECMG 1609/1612 36007KT

RJGG 15/08/2018 UTC

TAF RJGG 151705Z 1518/1700 16014KT 9999 FEW015 SCT040 TEMPO
1606/1612 FEW015 FEW020CB BKN030 BECMG 1609/1612 32022KT

RJCC 15/08/2018 UTC

TAF RJCC 151705Z 1518/1700 34003KT 9999 FEW006 BKN015 TEMPO
1518/1606 3000 -SHRA BR FEW003 BKN006 BECMG 1522/1600
18006KT BECMG 1606/1609 35018KT TEMPO 1606/1612 2000 TSRA
BR BKN004 BKN025 FEW025CB TEMPO 1612/1618 3000 SHRA BR
FEW003 BKN006

RJSS 15/08/2018 UTC

TAF RJSS 151717Z 1518/1700 21006KT 9999 FEW010 BKN030 TEMPO
1518/1521 4000 -SHRA BR BECMG 1609/1612 30015KT

RJFK 15/08/2018 UTC

TAF RJFK 151707Z 1518/1700 11006KT 9999 FEW010 BKN030 TEMPO
1603/1609 4000 -SHRA BR

RJAA 15/08/2018 UTC

TAF RJAA 151709Z 1518/1700 20010KT 9999 FEW030 BECMG 1523/1601
22016G26KT TEMPO 1603/1609 22024G38KT BECMG 1615/1618
32012KT

RJBB 15/08/2018 UTC

TAF RJBB 151707Z 1518/1700 20012KT 9999 FEW015 SCT035 BKN050 BECMG
1602/1604 21023KT TEMPO 1606/1612 2500 TSRA BR FEW008
SCT020 FEW025CB BKN030 BECMG 1609/1612 27010KT BECMG
1612/1615 03014KT

RJTT 15/08/2018 UTC

TAF RJTT 151708Z 1518/1700 20018KT 9999 FEW020 BECMG 1521/1523
20026G36KT BECMG 1615/1618 34018KT

RJFF 15/08/2018 UTC

TAF RJFF 151710Z 1518/1700 13006KT 9999 FEW020 SCT035 BECMG
1602/1604 03005KT TEMPO 1604/1609 4000 -TSRA BR FEW010
SCT020 BKN030 FEW030CB

RJFT 15/08/2018 UTC

TAF RJFT 151715Z 1518/1700 06005KT 9999 FEW025 SCT040 TEMPO
1603/1609 3000 TSRA BR FEW010 SCT020 FEW025CB BKN030

RJFU 15/08/2018 UTC

TAF RJFU 151712Z 1518/1700 14010KT 9999 FEW015 SCT030

ROAH 15/08/2018 UTC

TAF ROAH 151712Z 1518/1700 19020KT 9999 FEW010 BKN020 TEMPO
1518/1600 4000 SHRA FEW008 BKN015 FEW020CB TEMPO 1606/1609
4000 SHRA FEW008 BKN015 FEW020CB

RKSS 15/08/2018 UTC

TAF RKSS 151700Z 1518/1624 03005KT 9999 SCT030 BKN180
TN26/1520Z TX35/1605Z TN23/1620Z
BECMG 1600/1601 09010KT
BECMG 1602/1603 07015G25KT
BECMG 1611/1612 07009KT

RKSI 15/08/2018 UTC

TAF RKSI 151700Z 1518/1624 06010KT 9999 SCT030
TN27/1521Z TX34/1605Z TN22/1621Z
BECMG 1602/1603 07015G25KT
TEMPO 1612/1615 07012KT
BECMG 1615/1616 06010KT

RKSM 15/08/2018 UTC

TAF RKSM 151700Z 1518/1624 06006KT 9999 SCT040 SCT200 TN25/1520Z
TX33/1606Z

RKPK 15/08/2018 UTC

TAF RKPK 151700Z 1518/1624 21012KT 9999 SCT015 BKN030
TN27/1521Z TX32/1606Z
TEMPO 1519/1606 06016KT 4800 -RA BR
BECMG 1609/1610 03008KT

RKPC 15/08/2018 UTC

TAF RKPC 151700Z 1518/1624 09010KT 7000 SCT030 BKN120
TN27/1520Z TX30/1605Z TN26/1621Z
BECMG 1522/1523 10015G25KT -RA FEW010 BKN025 OVC100
BECMG 1606/1607 4200
BECMG 1614/1615 09025G35KT

Indonesia, Pakistan, Singapore, India, Sri Lanka, United Arab Emirates

The availability of aerodrome forecasts from overseas locations is dependent on the regular international exchange of data. Some locations may at times be absent. If this problem persists, please advise webav@bom.gov.au

 back to top

WIII 15/08/2018 UTC

TAF WIII 151700Z 1518/1700 VRB03KT 4500 HZ SCT020
BECMG 1603/1605 06008KT 7000 NSW

WSSS 15/08/2018 UTC

TAF WSSS 151700Z 1518/1700 16010KT 9999 FEW015 SCT020
TEMPO 1602/1606 3000 TSRA FEW012CB BKN015

VCBI 15/08/2018 UTC

TAF VCBI 151540Z 1518/1624 26014KT 9999 SCT016 TX29/1608Z
TN25/1600Z
TEMPO 1600/1603 7000 25014G24KT -SHRA FEW012 BKN016
FEW020CB

VECC 15/08/2018 UTC

TAF VECC 151100Z 1512/1618 13008KT 3200 -RA HZ SCT018 BKN100
BECMG 1518/1520 2500 -RA HZ
TEMPO 1520/1524 1500 TSRA SCT015 FEW025CB OVC090
BECMG 1603/1605 3200 -RA HZ
TEMPO 1607/1611 1500 TSRA SCT015 FEW025CB OVC090
BECMG 1616/1618 2800 -RA HZ

VOMM 15/08/2018 UTC

TAF VOMM 151700Z 1518/1624 23010KT 4000 RA/BR SCT016 OVC080
TEMPO 1518/1524 3000 -TSRA/RA SCT015 FEW025CB OVC080
BECMG 1605/1606 6000
TEMPO 1609/1615 3000 TSRA/RA SCT015 FEW025CB OVC080
BECMG 1613/1614 18010KT

VOTV 15/08/2018 UTC

TAF VOTV 151700Z 1518/1624 VRB05KT 3000 HZ FEW008 SCT012FEW025CB
OVC080 TEMPO 1518/1603 05005KT 2000 SHRA RA BECMG 1604/1606 35010KT
4000 HZ SCT010 SCT012 FEW025CB BKN080 TEMPO 1617/1618 35010G20KT
1500 RA BKN008 SCT012 FEW025CB BKN080 BECMG 1620/1622 35010KT 3000
BR SCT010 SCT012 BKN080

VABB 15/08/2018 UTC

TAF VABB 151700Z 1518/1624 26010KT 3000 -DZ HZ SCT018 SCT025
FEW025TCU BKN090
TEMPO 1518/1606 1500 -SHRA RA SCT012 FEW030CB BKN080
BECMG 1522/1524 26008G18KT
TEMPO 1606/1615 1500 SHRA RA BKN010 FEW030CB OVC080
BECMG1613/1615 26010KT
TEMPO 1615/1624 26008G18KT 1500 SHRA RA BKN010 FEW030CB
OVC080
BECMG 1617/1619 2000 -RA HZ

VAAH 15/08/2018 UTC

TAF VAAH 151700Z 1518/1624 20006KT 4000 HZ SCT020 BKN080
BECMG 1601/1603 23006KT 3000 HZ DZ
BECMG 1604/1606 23008KT 5000 FU
BECMG 1612/1614 21006KT 4000

VILK 15/08/2018 UTC

TAF VILK 151700Z 1518/1624 VRB02KT 2000 -RA BR SCT018 BKN090
TEMPO 1519/1523 1500 TSRA FEW030CB OVC090
BECMG 1604/1606 09004KT 3500 HZ
TEMPO 1608/1612 1500 TSRA FEW030CB OVC090
BECMG 1613/1615 VRB02KT 2500 BR

VANP 15/08/2018 UTC

TAF VANP 151700Z 1518/1624 32005KT 2000 RA BR SCT010 SCT020 OVC080

BECMG 1604/1606 34010KT 3000 -RA HZ FEW010 SCT020 BKN080
BECMG 1612/1614 2000 RA BR SCT010 SCT020 OVC080
TEMPO 1610/1614 36010KT 1000 TSRA FEW030CB

VRMM 15/08/2018 UTC

TAF VRMM 151700Z 1518/1624 22011KT 9999 FEW018TCU TEMPO
1521/1603 25017G30KT 5000 -TSRA FEW018CB

VOHS 15/08/2018 UTC

TAF VOHS 151700Z 1518/1624 28010KT 5000 -DZ BR SCT010 SCT015 OVC080
TEMPO 1600/1604 3000 DZ –RA BKN010 BECMG 1604/1606 29010KT 6000
SCT010 SCT015 BKN100 BECMG 1616/1618 27010KT 5000 HZ SCT015 BKN100
TEMPO 1612/1618 3000 SHRA RA SCT010 SCT015 OVC080

OPKC 15/08/2018 UTC

TAF OPKC 151600Z 1518/1624 23010G20KT 4000 HZ BKN025 TEMPO 1523/1603
25008KT 4000 DZ SCT018
BKN025 FM160600 23010G20KT 5000 BKN025 TEMPO 1621/1624 25008KT 4000
DZ SCT018 BKN025

OBBI 15/08/2018 UTC

TAF OBBI 151700Z 1518/1700 33010KT CAVOK

OMAA 15/08/2018 UTC

TAF OMAA 151700Z 1518/1700 34006KT 8000 NSC
BECMG 1523/1601 05004KT
PROB30 1601/1604 2000 BR
BECMG 1607/1609 34013KT
BECMG 1619/1621 VRB02KT

OMDB 15/08/2018 UTC

TAF OMDB 151707Z 1518/1700 32010KT 8000 NSC
BECMG 1519/1521 10005KT
PROB30 1600/1604 4000 HZ
BECMG 1608/1610 33014KT
BECMG 1616/1618 05005KT

OOMS 15/08/2018 UTC

TAF OOMS 151700Z 1518/1624 VRB02KT 7000 NSC PROB30 TEMPO 1520/1604
3000 BR BKN010 BECMG 1606/1608 05012KT BECMG 1617/1619
VRB02KT

OMSJ 15/08/2018 UTC

TAF OMSJ 151707Z 1518/1700 30010KT 8000 NSC
BECMG 1518/1520 12005KT
PROB30 1600/1605 4000 HZ
BECMG 1608/1610 34014KT
BECMG 1616/1618 VRB02KT

Malawi, Mauritius, South Africa, Zambia, Zimbabwe

The availability of aerodrome forecasts from overseas locations is dependent on the regular international exchange of data. Some locations may at times be absent. If this problem persists, please advise webav@bom.gov.au

 back to top

FIMP 15/08/2018 UTC

TAF FIMP 151715Z 1518/1700 13013G25KT 9999 SCT017

FMEE 15/08/2018 UTC

TAF FMEE 151700Z 1518/1624 13014KT 9999 FEW026 BECMG 1604/1606
12017G27KT BECMG 1615/1616 13012KT

FLKK 14/08/2018 UTC

TAF FLKK 142200Z 1500/1606 09005KT CAVOK

FWKI 15/08/2018 UTC

TAF FWKI 151530Z 1518/1624 09007KT CAVOK
BECMG 1605/1607 CAVOK
FM160800 08010KT CAVOK

FAOR 15/08/2018 UTC

TAF FAOR 151600Z 1518/1624 36010KT CAVOK
BECMG 1606/1608 33014KT
TX24/1612Z TN13/1604Z

FVHA 15/08/2018 UTC

TAF FVHA 151600Z 1518/1624 06008KT CAVOK

FAWK 15/08/2018 UTC

TAF FAWK 151800Z 1519/1606 NIL

FABL 15/08/2018 UTC

TAF FABL 151600Z 1518/1618 VRB03KT CAVOK
BECMG 1609/1611 28010KT
TX25/1612Z TN06/1605Z

FALE 15/08/2018 UTC

TAF FALE 151600Z 1518/1624 19005KT 9999 SCT025 BKN030
PROB30 TEMPO 1520/1524 6000 RA BKN010
BECMG 1608/1610 12006KT
FM161400 05012KT CAVOK
BECMG 1618/1620 20005KT
TX23/1612Z TN16/1604Z

YPCC 15/08/2018 UTC

TAF AMD YPCC 151712Z 1518/1618
11014KT 9999 -SHRA SCT020
INTER 1609/1618 3000 SHRA BKN010
RMK
T 25 25 25 27 Q 1013 1012 1013 1014

United States (includes Hawaii) and Mexican emergency/alternates

The availability of aerodrome forecasts from overseas locations is dependent on the regular international exchange of data. Some locations may at times be absent. If this problem persists, please advise webav@bom.gov.au

 back to top

PHNL 15/08/2018 UTC

TAF PHNL 151722Z 1518/1624 VRB05KT P6SM SCT040 SCT070
FM152000 06011G18KT P6SM FEW030 SCT050
FM160600 04005KT P6SM FEW030 SCT050
FM162000 06010G17KT P6SM SCT025 SCT050

PHLI 15/08/2018 UTC

TAF PHLI 151722Z 1518/1618 33005KT P6SM SCT020 SCT040
FM152000 05010KT P6SM SCT025 SCT050
FM160600 05005KT P6SM SCT025

PHOG 15/08/2018 UTC

TAF PHOG 151722Z 1518/1618 03008KT P6SM FEW030
FM152000 04016G22KT P6SM FEW030 SCT050
FM160600 04008KT P6SM FEW030 SCT050

PHTO 15/08/2018 UTC

TAF PHTO 151722Z 1518/1618 24004KT P6SM BKN020 BKN045
TEMPO 1518/1520 VRB06KT 4SM -SHRA BR BKN020 OVC035
FM152000 04009KT P6SM VCSH SCT025 BKN050
FM160600 24006KT P6SM VCSH SCT025 BKN050

PKMJ 15/08/2018 UTC

TAF PKMJ 151738Z 1518/1618 16008KT P6SM VCSH FEW015 SCT050 SCT130

KLAX 15/08/2018 UTC

TAF KLAX 151734Z 1518/1624 25007KT P6SM SCT019 BKN160
FM152000 26012KT P6SM SKC
FM160400 26006KT P6SM FEW010
FM160800 VRB03KT P6SM BKN011
FM161600 26006KT P6SM SCT015
FM162000 26012KT P6SM SKC

KONT 15/08/2018 UTC

TAF KONT 151733Z 1518/1624 23006KT P6SM FEW100
FM151900 26011KT P6SM SCT100 SCT250
FM160500 VRB05KT P6SM SCT100
FM162000 26012KT P6SM BKN100

KPMD 15/08/2018 UTC

TAF KPMD 151734Z 1518/1618 00000KT P6SM SKC
FM151900 23010KT P6SM SKC
FM152200 24015G25KT P6SM SCT100
FM160300 24012KT P6SM SKC
FM160900 21008KT P6SM SKC

KSAN 15/08/2018 UTC

TAF KSAN 151733Z 1518/1624 25006KT P6SM OVC020
FM152100 28009KT P6SM SCT020 SCT070
FM160300 28005KT P6SM BKN020
FM160600 VRB04KT P6SM OVC018
FM161900 28008KT P6SM SCT020 BKN100

KLAS 15/08/2018 UTC

TAF KLAS 151741Z 1518/1624 VRB05KT P6SM FEW150
FM151900 16009KT P6SM VCTS SCT120CB TEMPO 1520/1524
VRB20G30KT -TSRA SCT100CB BKN200
FM160200 21011KT P6SM SCT120 SCT200
FM161400 VRB06KT P6SM BKN250

KOAK 15/08/2018 UTC

TAF KOAK 151727Z 1518/1624 26009KT P6SM OVC017
FM152000 27010KT P6SM SCT018
FM152200 29015KT P6SM FEW012
FM160400 28010KT P6SM BKN012
FM160800 28008KT P6SM OVC010
FM161300 26008KT P6SM OVC015
FM161900 27010KT P6SM SCT015

KSFO 15/08/2018 UTC

TAF KSFO 151727Z 1518/1624 27010KT P6SM OVC017
FM152100 28012KT P6SM SCT018
FM152300 28016G24KT P6SM FEW010
FM160400 28014KT P6SM BKN014
FM160700 27010KT P6SM OVC010
FM161300 27007KT P6SM OVC015
FM161900 32007KT P6SM SCT015

KSMF 15/08/2018 UTC

TAF KSMF 151736Z 1518/1618 23005KT P6SM SKC
FM152100 19006KT P6SM SKC
FM160000 16011KT P6SM SKC

KSCK 15/08/2018 UTC

TAF KSCK 151736Z 1518/1618 30008KT P6SM SKC
FM160600 31006KT P6SM SKC

KFAT 15/08/2018 UTC

TAF KFAT 151722Z 1518/1618 30007KT P6SM SKC

KJFK 15/08/2018 UTC

TAF KJFK 151936Z 1520/1624 27010G18KT P6SM FEW050 SCT250
FM152200 26010KT P6SM FEW050 FEW250
FM160300 28007KT P6SM FEW050 FEW250
FM161600 23010KT P6SM FEW050 FEW250

KPHL 15/08/2018 UTC

TAF KPHL 151735Z 1518/1624 29009KT P6SM FEW050
FM160300 25005KT P6SM FEW060
FM161200 25007KT P6SM SCT130

KPIT 15/08/2018 UTC

TAF KPIT 151732Z 1518/1624 22006KT P6SM SCT030 BKN150
FM161200 18003KT P6SM BKN080
FM161700 18006KT P6SM -SHRA VCTS BKN040CB

KDEN 15/08/2018 UTC

TAF AMD KDEN 152014Z 1520/1624 03011KT P6SM FEW100 SCT220
FM152200 08014KT P6SM FEW090 BKN220
FM160100 12015G23KT P6SM SCT090 BKN140
FM160400 19012KT P6SM SCT140 BKN200
FM160700 26008KT P6SM SCT200
FM161400 35007KT P6SM SCT200
FM162100 09007KT P6SM SCT220

KMCI 15/08/2018 UTC

TAF KMCI 152027Z 1520/1618 VRB04KT P6SM VCTS SCT025 BKN040CB
TEMPO 1520/1522 BKN025CB
FM160100 36005KT P6SM SCT040
FM161000 28003KT 5SM BR SKC
FM161300 34006KT P6SM SCT040

KDFW 15/08/2018 UTC

TAF KDFW 151736Z 1518/1624 18012KT P6SM FEW080

KAUS 15/08/2018 UTC

TAF KAUS 151917Z 1519/1624 16012KT P6SM FEW060 SCT250
FM160600 18007KT P6SM SCT015
FM160900 18005KT P6SM BKN015
FM161400 17011KT P6SM SCT025 SCT050

KELP 15/08/2018 UTC

TAF KELP 151736Z 1518/1618 16005KT P6SM FEW080 BKN250
FM152200 18007KT P6SM SCT080 BKN200
FM160300 26010KT P6SM FEW100 BKN150 OVC220

KIAH 15/08/2018 UTC

TAF KIAH 152033Z 1521/1624 16008KT P6SM VCTS BKN050CB
FM152300 15005KT P6SM SCT250
FM161500 18006KT P6SM SCT030

KSAT 15/08/2018 UTC

TAF KSAT 151733Z 1518/1624 16011KT P6SM FEW060 SCT250
FM160800 17009KT P6SM OVC015
FM161500 16010KT P6SM SCT050

KTUS 15/08/2018 UTC

TAF KTUS 152016Z 1520/1618 10010KT P6SM VCSH SCT100
FM152200 26008KT P6SM VCSH SCT060 BKN120
FM160100 17007KT P6SM BKN150
FM160500 14006KT P6SM BKN150

MMCU 15/08/2018 UTC

TAF MMCU 151729Z 1518/1618 10010KT P6SM SCT030CB BKN120 BKN230
FM152100 13015KT P6SM BKN020CB OVC100
TEMPO 1521/1601 4SM TSRA
BECMG 1602/1603 16010KT
TEMPO 1602/1606 5SM TSRA
FM161000 00000KT P6SM SCT015 OVC100
FM161400 20010KT P6SM SCT100 BKN250

MMHO 15/08/2018 UTC

TAF MMHO 151707Z 1518/1618 20010KT P6SM SCT030CB BKN230
FM152300 25010KT P6SM BKN020CB OVC100
TEMPO 1602/1606 6SM TSRA
FM161200 00000KT P6SM SCT020 SCT100 BKN250
FM161500 25010KT P6SM SCT050 BKN250

MMLT 15/08/2018 UTC

TAF AMD MMLT 152010Z 1520/1618 16010KT P6SM SCT020CB BKN140 BKN240
TEMPO 1520/1524 6SM VC RA
FM160400 20006KT P6SM SCT030 BKN240
FM161600 13006KT P6SM SCT030

MMSD 15/08/2018 UTC

TAF MMSD 151649Z 1518/1618 14010KT P6SM SCT040 BKN200
TEMPO 1519/1523 SCT040CB
FM160400 27005KT P6SM SCT015 SCT200
FM161700 13010KT P6SM SCT250

Papua New Guinea, Southwest Pacific

The availability of aerodrome forecasts from overseas locations is dependent on the regular international exchange of data. Some locations may at times be absent. If this problem persists, please advise webav@bom.gov.au

 back to top

NWWW 15/08/2018 UTC

TAF NWWW 151700Z 1518/1618 VRB02KT 9999 BKN050 PROB40 TEMPO 1518/1521 3000 MIFG BECMG 1522/1601 19012KT BECMG 1606/1608 VRB02KT

NFFN 15/08/2018 UTC

TAF NFFN 151703Z 1518/1618
12008KT 9999 FEW030 BKN050

NFNA 15/08/2018 UTC

TAF NFNA 151705Z 1518/1618
16007KT 9999 SCT020 BKN045

NFTF 15/08/2018 UTC

TAF NFTF 151703Z 1518/1618
17007KT 9999 SCT017 BKN100

NSTU 15/08/2018 UTC

TAF NSTU 151722Z 1518/1618 11009KT P6SM VCSH SCT015 BKN035 BKN100

NVVV 15/08/2018 UTC

TAF NVVV 151600Z 1518/1618 10010KT 9999 SCT020 BKN100
PROB30 INTER 1518/1524 9000 -SHRA BKN018

NCRG 15/08/2018 UTC

TAF NCRG 151703Z 1518/1618
14007KT 9999 SCT018

NTAA 15/08/2018 UTC

TAF NTAA 151700Z 1518/1624 VRB05KT 9999 FEW023 BKN050 BECMG 1520/1522
18012KT

NTTG

TAF not available.

NTTO

TAF not available.

NSFA 15/08/2018 UTC

TAF NSFA 151704Z 1518/1618
10008KT 9999 FEW025 SCT050
PROB30 TEMPO 1603/1612 5000 TSRA FEW017CB
PROB40 TEMPO 1612/1624 3000 TSRA BKN015 FEW017CB

ANYN

TAF not available.

AGGH 15/08/2018 UTC

TAF AGGH 151755Z 1518/1618 11008KT 9999 FEW016 SCT026

FM152300 09015KT 9999 SCT018

T 22 25 30 32 Q 1009 1011 1010 1008

AGGM 15/08/2018 UTC

TAF AGGM 151755Z 1518/1618 08005KT 9999 -SHDZ FEW016 BKN028

PROB40 INTER 1518/1523 5000 TSSH SCT015 FEW016CB BKN025

Q 1008 1010 1010 1008

AGGN 15/08/2018 UTC

TAF AGGN 151755Z 1518/1618 12005KT 9999 -SHDZ FEW016 SCT028 BKN100

PROB40 INTER 1518/1523 5000 TSSH SCT015 FEW016CB BKN025

Q 1008 1010 1010 1008

AYPY 15/08/2018 UTC

TAF AYPY 151535Z 1518/1618 17007KT 9999 SCT035
FM152100 17007KT 9999 FEW020 SCT040
FM160000 17010KT 9999 SCT020

AYNZ

TAF not available.

AYMD

TAF not available.

AYMH

TAF not available.

AYTA

TAF not available.

PKMJ 15/08/2018 UTC

TAF PKMJ 151738Z 1518/1618 16008KT P6SM VCSH FEW015 SCT050 SCT130

NGTA 15/08/2018 UTC

TAF NGTA 151705Z 1518/1618
10007KT 9999 SCT018 BKN100

PTRO 15/08/2018 UTC

TAF PTRO 151738Z 1518/1618 30011G23KT P6SM VCSH SCT016 BKN040 OVC110

YLHI 15/08/2018 UTC

TAF YLHI 151732Z 1518/1618
30017G25KT 9999 SCT025
FM160200 28015KT 9999 FEW030
FM160700 25008KT 9999 FEW030
RMK FM151800 MOD TURB BLW 5000FT TILL160100
T 18 18 20 21 Q 1012 1012 1012 1010

YSNF 15/08/2018 UTC

TAF YSNF 151735Z 1518/1618
27008KT 9999 SCT030
FM160000 29014KT 9999 SCT035
FM160900 29014KT 9999 -SHRA SCT030
RMK
T 14 17 19 19 Q 1017 1018 1018 1015

Indonesia, Timor Leste, Papua New Guinea

The availability of aerodrome forecasts from overseas locations is dependent on the regular international exchange of data. Some locations may at times be absent. If this problem persists, please advise webav@bom.gov.au

 back to top

WAAA 15/08/2018 UTC

TAF COR WAAA 151700Z 1518/1624 17005KT 8000 FEW019
BECMG 1522/1524 9999
BECMG 1604/1606 29010KT
BECMG 1611/1613 09005KT 8000
BECMG 1617/1619 18005KT

WAMM 15/08/2018 UTC

TAF WAMM 151700Z 1518/1624 10003KT 9999 FEW022
BECMG 1523/1601 18008KT

WAMP

TAF not available.

WAJJ 15/08/2018 UTC

TAF WAJJ 151700Z 1518/1618 00000KT 7000 -RA SCT013
BECMG 1519/1521 9999 NSW
BECMG 1522/1524 13007KT
TEMPO 1604/1607 FEW012CB FEW013
BECMG 1607/1609 29005KT
BECMG 1610/1612 00000KT

WAPP 15/08/2018 UTC

TAF WAPP 151700Z 1518/1618 34006KT 9000 BKN017

WABB 15/08/2018 UTC

TAF WABB 151700Z 1518/1700 32003KT 9999 FEW018
BECMG 1520/1522 24008KT

WPDL 15/08/2018 UTC

TAF WPDL 151611Z 1518/1606
15006KT CAVOK
FM160000 03010KT CAVOK
RMK
T 23 23 28 29 Q 1013 1013 1015 1014

WATT 15/08/2018 UTC

TAF WATT 151700Z 1518/1618 11011KT 8000 BKN018
BECMG 1601/1603 10017KT FEW018

WIII 15/08/2018 UTC

TAF WIII 151700Z 1518/1700 VRB03KT 4500 HZ SCT020
BECMG 1603/1605 06008KT 7000 NSW

WIHH 15/08/2018 UTC

TAF WIHH 151700Z 1518/1618 12003KT 5000 HZ FEW024 BECMG 1603/1605 05009KT 7000

WIMM 15/08/2018 UTC

TAF WIMM 151700Z 1518/1618 VRB04KT 4000 HZ SCT018
BECMG 1602/1604 05010KT 9999
BECMG 1610/1612 VRB05KT 5000 HZ FEW016CB SCT017

WARR 15/08/2018 UTC

TAF WARR 151700Z 1518/1618 26005KT 7000 FEW020
TEMPO 1520/1600 4000 HZ BECMG 1601/1603 10010KT 9999

WADD 15/08/2018 UTC

TAF WADD 151700Z 1518/1618 10012KT 9999 SCT017

AYPY 15/08/2018 UTC

TAF AYPY 151535Z 1518/1618 17007KT 9999 SCT035
FM152100 17007KT 9999 FEW020 SCT040
FM160000 17010KT 9999 SCT020

AYNZ

TAF not available.

AYMH

TAF not available.

AYMD

TAF not available.

AYHK

TAF not available.

AYTK

TAF not available.

AYVN

TAF not available.

AYWK

TAF not available.

AYGA

TAF not available.

AYDU

TAF not available.

AYMS

TAF not available.

AYRB

TAF not available.

AYTB

TAF not available.

AYKI

TAF not available.

AYKT

TAF not available.

AYBK

TAF not available.

AYKM

TAF not available.

AYKY

TAF not available.

AYMO

TAF not available.

AYKV

TAF not available.

Accessing this Service

By entering this site, you acknowledge that this information is produced solely for use by the aviation industry, and you are aware that any information for the purposes of flight planning should be obtained from Airservices Australia.